Time;durP1;ratioP1;P1;durP2;ratioP2;P2;SDS_P1;SDS_P2;PMS_P1;PMS_P2;Temp;Humidity;BMP_temperature;BMP_pressure;BME280_temperature;BME280_humidity;BME280_pressure;Samples;Min_cycle;Max_cycle;Signal;HPM_P1;HPM_P2
2022/09/10 00:01:27;;;;;;;0.50;0.50;;;;;;;22.04;89.55;99269.69;5089845;28;20217;-65
2022/09/10 00:03:54;;;;;;;0.37;0.37;;;;;;;22.00;89.73;99263.06;5090473;28;20199;-65
2022/09/10 00:06:26;;;;;;;0.50;0.50;;;;;;;21.97;89.80;99266.72;5089935;28;20209;-65
2022/09/10 00:08:55;;;;;;;0.40;0.40;;;;;;;21.94;90.28;99264.38;5090354;28;20242;-65
2022/09/10 00:11:24;;;;;;;1.27;1.27;;;;;;;21.93;90.48;99273.16;5091715;28;20194;-65
2022/09/10 00:13:50;;;;;;;0.30;0.30;;;;;;;21.91;90.26;99269.00;5094579;28;20214;-65
2022/09/10 00:16:18;;;;;;;0.33;0.33;;;;;;;21.88;90.72;99275.25;5094591;28;20221;-65
2022/09/10 00:18:46;;;;;;;0.40;0.40;;;;;;;21.86;90.91;99278.94;5093691;28;20331;-64
2022/09/10 00:21:16;;;;;;;0.40;0.40;;;;;;;21.83;90.93;99277.41;5093561;28;20195;-64
2022/09/10 00:23:44;;;;;;;0.20;0.20;;;;;;;21.83;90.81;99282.63;5094506;28;20632;-65
2022/09/10 00:26:14;;;;;;;0.30;0.30;;;;;;;21.76;91.42;99291.88;5094276;28;20215;-65
2022/09/10 00:28:43;;;;;;;0.40;0.40;;;;;;;21.67;91.62;99286.53;5093230;28;20199;-64
2022/09/10 00:31:12;;;;;;;0.40;0.40;;;;;;;21.56;92.01;99283.91;5093492;28;20207;-65
2022/09/10 00:33:39;;;;;;;0.30;0.30;;;;;;;21.46;92.60;99278.59;5093511;28;20214;-65
2022/09/10 00:36:14;;;;;;;0.40;0.40;;;;;;;21.39;93.44;99283.44;5094140;28;20582;-65
2022/09/10 00:38:41;;;;;;;0.30;0.30;;;;;;;21.36;93.83;99272.41;5094018;28;20195;-65
2022/09/10 00:41:08;;;;;;;0.40;0.40;;;;;;;21.34;93.96;99269.94;5094004;28;20686;-65
2022/09/10 00:43:56;;;;;;;0.30;0.30;;;;;;;21.36;94.46;99267.19;5093978;28;20229;-64
2022/09/10 00:46:44;;;;;;;0.40;0.40;;;;;;;21.35;94.60;99273.38;5093797;28;20298;-65
2022/09/10 00:49:16;;;;;;;0.40;0.40;;;;;;;21.34;94.68;99279.53;5094335;28;20596;-65
2022/09/10 00:51:45;;;;;;;0.63;0.63;;;;;;;21.34;94.98;99279.53;5093895;28;20217;-65
2022/09/10 00:54:13;;;;;;;0.37;0.37;;;;;;;21.26;94.68;99266.25;5093510;28;20218;-65
2022/09/10 00:56:41;;;;;;;0.43;0.43;;;;;;;21.33;94.14;99283.06;5093653;28;20206;-65
2022/09/10 00:59:14;;;;;;;0.40;0.40;;;;;;;21.34;93.91;99284.75;5093761;28;20281;-65
2022/09/10 01:01:41;;;;;;;0.40;0.40;;;;;;;21.31;94.38;99290.19;5093871;28;20192;-65
2022/09/10 01:04:09;;;;;;;0.40;0.40;;;;;;;21.30;94.70;99283.31;5093735;28;20571;-65
2022/09/10 01:06:37;;;;;;;0.40;0.40;;;;;;;21.30;94.26;99278.09;5091514;28;20625;-65
2022/09/10 01:09:05;;;;;;;0.37;0.37;;;;;;;21.30;94.39;99278.09;5093708;28;20191;-65
2022/09/10 01:12:02;;;;;;;0.30;0.30;;;;;;;21.28;94.48;99280.00;5093640;28;20226;-65
2022/09/10 01:14:56;;;;;;;0.40;0.40;;;;;;;21.26;95.16;99276.69;5093448;28;20706;-64
2022/09/10 01:17:30;;;;;;;0.40;0.40;;;;;;;21.26;95.15;99271.47;5093788;28;20202;-65
2022/09/10 01:20:35;;;;;;;0.30;0.30;;;;;;;21.26;94.96;99271.47;5093326;28;20210;-65
2022/09/10 01:23:40;;;;;;;0.40;0.40;;;;;;;21.18;95.37;99276.41;5091874;28;20256;-64
2022/09/10 01:26:16;;;;;;;0.50;0.50;;;;;;;21.15;95.39;99279.25;5080717;28;20198;-65
2022/09/10 01:28:51;;;;;;;0.40;0.40;;;;;;;21.16;95.67;99291.34;5091926;28;20656;-65
2022/09/10 01:31:26;;;;;;;0.43;0.43;;;;;;;21.17;95.27;99287.78;5093987;28;20313;-65
2022/09/10 01:33:57;;;;;;;0.50;0.50;;;;;;;21.17;95.25;99288.63;5088499;28;20228;-65
2022/09/10 01:36:28;;;;;;;0.40;0.40;;;;;;;21.07;95.66;99281.56;5092697;28;20203;-65
2022/09/10 01:38:56;;;;;;;0.40;0.40;;;;;;;20.89;95.83;99295.03;5092614;28;20284;-65
2022/09/10 01:41:24;;;;;;;0.40;0.40;;;;;;;20.64;96.64;99289.97;5092191;28;20206;-65
2022/09/10 01:43:53;;;;;;;0.30;0.30;;;;;;;20.47;98.17;99292.13;5092970;28;20697;-65
2022/09/10 01:46:33;;;;;;;0.60;0.60;;;;;;;20.42;98.91;99289.84;5092288;28;20209;-65
2022/09/10 01:49:17;;;;;;;0.50;0.50;;;;;;;20.43;99.20;99291.50;5092614;28;20199;-65
2022/09/10 01:52:00;;;;;;;0.30;0.30;;;;;;;20.42;99.04;99285.47;5092841;28;20211;-64
2022/09/10 01:54:41;;;;;;;0.37;0.37;;;;;;;20.52;99.21;99290.84;5091800;28;20484;-65
2022/09/10 01:57:18;;;;;;;0.30;0.30;;;;;;;20.57;98.83;99287.91;5091945;28;20667;-65
2022/09/10 01:59:53;;;;;;;0.40;0.40;;;;;;;20.57;98.73;99277.50;5092416;28;20267;-65
2022/09/10 02:02:23;;;;;;;0.40;0.40;;;;;;;20.58;98.70;99269.56;5092083;28;20208;-65
2022/09/10 02:04:52;;;;;;;0.50;0.50;;;;;;;20.60;98.98;99261.66;5091979;28;20201;-65
2022/09/10 02:07:22;;;;;;;0.40;0.40;;;;;;;20.62;98.85;99255.38;5091709;28;20201;-65
2022/09/10 02:09:49;;;;;;;0.30;0.30;;;;;;;20.65;98.58;99252.53;5092321;28;20653;-64
2022/09/10 02:12:19;;;;;;;0.40;0.40;;;;;;;20.66;98.17;99262.03;5092321;28;20246;-65
2022/09/10 02:14:48;;;;;;;0.30;0.30;;;;;;;20.65;98.46;99268.16;5092379;28;20218;-65
2022/09/10 02:17:16;;;;;;;0.30;0.30;;;;;;;20.64;98.89;99269.13;5091649;28;20204;-65
2022/09/10 02:19:45;;;;;;;0.30;0.30;;;;;;;20.65;98.79;99272.53;5092390;28;20207;-65
2022/09/10 02:22:14;;;;;;;0.30;0.30;;;;;;;20.66;99.23;99275.06;5092236;28;20209;-65
2022/09/10 02:24:43;;;;;;;0.40;0.40;;;;;;;20.67;98.86;99279.34;5091764;28;20591;-65
2022/09/10 02:27:10;;;;;;;0.50;0.50;;;;;;;20.66;98.96;99293.28;5091242;28;20207;-65
2022/09/10 02:29:37;;;;;;;0.30;0.30;;;;;;;20.67;98.69;99289.75;5092153;28;20203;-65
2022/09/10 02:32:07;;;;;;;0.30;0.30;;;;;;;20.58;98.55;99274.78;5092298;28;20201;-65
2022/09/10 02:34:35;;;;;;;0.30;0.30;;;;;;;20.64;98.69;99289.13;5090291;28;20267;-65
2022/09/10 02:37:03;;;;;;;0.40;0.40;;;;;;;20.64;98.78;99279.56;5091966;28;20686;-64
2022/09/10 02:39:30;;;;;;;0.40;0.40;;;;;;;20.61;98.74;99274.56;5091671;28;20248;-65
2022/09/10 02:41:57;;;;;;;0.50;0.50;;;;;;;20.50;99.37;99266.69;5091882;28;20564;-65
2022/09/10 02:44:26;;;;;;;0.60;0.60;;;;;;;20.42;99.79;99269.00;5091554;28;20197;-64
2022/09/10 02:46:52;;;;;;;0.40;0.40;;;;;;;20.27;100.00;99257.94;5091700;28;20203;-65
2022/09/10 02:49:21;;;;;;;0.40;0.40;;;;;;;20.32;100.00;99281.06;5091495;28;20209;-65
2022/09/10 02:51:49;;;;;;;0.50;0.50;;;;;;;20.35;100.00;99280.84;5091653;28;20210;-65
2022/09/10 02:54:16;;;;;;;0.40;0.40;;;;;;;20.35;100.00;99288.66;5091225;28;20275;-65
2022/09/10 02:56:43;;;;;;;0.40;0.40;;;;;;;20.23;100.00;99276.44;5091176;28;20269;-65
2022/09/10 02:59:10;;;;;;;0.40;0.40;;;;;;;20.33;100.00;99295.72;5091552;28;20197;-64
2022/09/10 03:01:37;;;;;;;0.40;0.40;;;;;;;20.29;100.00;99295.09;5091361;28;20207;-65
2022/09/10 03:04:04;;;;;;;0.33;0.33;;;;;;;20.27;100.00;99296.16;5091259;28;20205;-65
2022/09/10 03:06:32;;;;;;;0.40;0.40;;;;;;;20.23;100.00;99300.72;5091592;28;20204;-65
2022/09/10 03:09:00;;;;;;;0.40;0.40;;;;;;;20.24;100.00;99301.56;5091315;28;20197;-64
2022/09/10 03:11:27;;;;;;;0.40;0.40;;;;;;;20.27;100.00;99302.19;5091295;28;20660;-65
2022/09/10 03:13:55;;;;;;;0.43;0.43;;;;;;;20.29;100.00;99308.13;5090895;28;20256;-65
2022/09/10 03:16:22;;;;;;;0.30;0.30;;;;;;;20.31;100.00;99305.44;5091240;28;20198;-64
2022/09/10 03:18:50;;;;;;;0.33;0.33;;;;;;;20.33;100.00;99306.13;5091068;28;20212;-65
2022/09/10 03:21:19;;;;;;;0.40;0.40;;;;;;;20.32;100.00;99294.88;5090000;28;20228;-65
2022/09/10 03:23:49;;;;;;;0.30;0.30;;;;;;;20.20;100.00;99267.09;5089617;28;20212;-64
2022/09/10 03:26:18;;;;;;;0.30;0.30;;;;;;;20.30;100.00;99298.53;5088475;28;20254;-65
2022/09/10 03:28:45;;;;;;;0.40;0.40;;;;;;;20.27;99.96;99293.56;5090946;28;20206;-64
2022/09/10 03:31:13;;;;;;;0.40;0.40;;;;;;;20.23;99.14;99285.09;5091136;28;20198;-65
2022/09/10 03:33:40;;;;;;;0.47;0.47;;;;;;;20.23;98.26;99281.66;5090844;28;20235;-65
2022/09/10 03:36:08;;;;;;;0.40;0.40;;;;;;;20.23;97.97;99289.47;5090485;28;20276;-64
2022/09/10 03:38:34;;;;;;;0.40;0.40;;;;;;;20.23;97.83;99289.47;5090773;28;20198;-65
2022/09/10 03:41:03;;;;;;;0.50;0.50;;;;;;;20.16;97.87;99291.69;5090630;28;20197;-65
2022/09/10 03:43:31;;;;;;;0.50;0.50;;;;;;;20.09;98.05;99289.63;5090869;28;20202;-65
2022/09/10 03:45:58;;;;;;;0.50;0.50;;;;;;;20.11;98.24;99300.75;5089288;28;20197;-65
2022/09/10 03:48:25;;;;;;;0.43;0.43;;;;;;;20.09;98.46;99295.69;5087831;28;20294;-64
2022/09/10 03:50:51;;;;;;;0.40;0.40;;;;;;;20.07;98.56;99297.53;5089862;28;20191;-65
2022/09/10 03:53:19;;;;;;;0.63;0.63;;;;;;;20.07;98.73;99304.50;5089721;28;20264;-65
2022/09/10 03:55:48;;;;;;;0.33;0.33;;;;;;;20.06;99.15;99297.66;5088761;28;20233;-65
2022/09/10 03:58:17;;;;;;;0.40;0.40;;;;;;;20.07;99.45;99288.91;5090386;28;20609;-65
2022/09/10 04:00:44;;;;;;;0.43;0.43;;;;;;;20.00;99.70;99274.69;5088753;28;20302;-65
2022/09/10 04:03:11;;;;;;;0.50;0.50;;;;;;;20.04;99.94;99286.50;5089953;28;20202;-65
2022/09/10 04:05:39;;;;;;;0.50;0.50;;;;;;;20.03;100.00;99285.72;5090413;28;20193;-65
2022/09/10 04:08:08;;;;;;;0.50;0.50;;;;;;;20.00;100.00;99282.50;5090206;28;20213;-65
2022/09/10 04:10:35;;;;;;;0.40;0.40;;;;;;;19.98;100.00;99289.56;5090381;28;20196;-65
2022/09/10 04:13:02;;;;;;;0.50;0.50;;;;;;;19.99;100.00;99297.25;5090047;28;20915;-65
2022/09/10 04:15:30;;;;;;;0.40;0.40;;;;;;;20.03;100.00;99296.13;5090180;28;20210;-65
2022/09/10 04:17:57;;;;;;;0.40;0.40;;;;;;;20.04;100.00;99294.31;5090508;28;20203;-65
2022/09/10 04:20:24;;;;;;;0.23;0.23;;;;;;;19.97;100.00;99280.91;5088176;28;20207;-65
2022/09/10 04:22:52;;;;;;;0.40;0.40;;;;;;;20.01;100.00;99292.78;5090387;28;20575;-64
2022/09/10 04:25:20;;;;;;;0.40;0.40;;;;;;;20.05;100.00;99301.19;5089563;28;20201;-65
2022/09/10 04:27:48;;;;;;;0.40;0.40;;;;;;;20.09;100.00;99307.84;5090653;28;20221;-65
2022/09/10 04:30:16;;;;;;;0.40;0.40;;;;;;;20.14;100.00;99310.97;5089792;28;20712;-65
2022/09/10 04:32:44;;;;;;;0.30;0.30;;;;;;;20.19;100.00;99298.47;5090659;28;20206;-65
2022/09/10 04:35:12;;;;;;;0.40;0.40;;;;;;;20.19;100.00;99288.06;5090194;28;20219;-65
2022/09/10 04:37:38;;;;;;;0.50;0.50;;;;;;;20.21;100.00;99281.78;5089735;28;20211;-65
2022/09/10 04:40:06;;;;;;;0.40;0.40;;;;;;;20.22;100.00;99272.22;5090369;28;20615;-65
2022/09/10 04:42:33;;;;;;;0.50;0.50;;;;;;;20.23;100.00;99276.44;5089875;28;20284;-65
2022/09/10 04:45:00;;;;;;;0.30;0.30;;;;;;;20.16;100.00;99252.63;5089729;28;20196;-65
2022/09/10 04:47:26;;;;;;;0.40;0.40;;;;;;;20.40;100.00;99270.91;5089826;28;20206;-64
2022/09/10 04:49:55;;;;;;;0.40;0.40;;;;;;;20.52;100.00;99280.44;5089766;28;20586;-64
2022/09/10 04:52:23;;;;;;;0.40;0.40;;;;;;;20.64;100.00;99276.94;5089661;28;20381;-64
2022/09/10 04:54:50;;;;;;;0.50;0.50;;;;;;;20.76;100.00;99283.03;5090134;28;20642;-65
2022/09/10 04:57:16;;;;;;;0.30;0.30;;;;;;;20.85;100.00;99283.19;5090909;28;20206;-65
2022/09/10 04:59:43;;;;;;;0.40;0.40;;;;;;;20.97;100.00;99296.25;5091247;28;20203;-65
2022/09/10 05:02:10;;;;;;;0.40;0.40;;;;;;;21.12;100.00;99295.97;5091075;28;20205;-65
2022/09/10 05:04:38;;;;;;;0.27;0.27;;;;;;;21.33;100.00;99304.75;5093243;28;20198;-64
2022/09/10 05:07:06;;;;;;;0.40;0.40;;;;;;;21.52;99.30;99313.81;5093530;28;20660;-64
2022/09/10 05:09:33;;;;;;;0.40;0.40;;;;;;;21.70;97.67;99321.06;5093499;28;20249;-65
2022/09/10 05:12:01;;;;;;;0.20;0.20;;;;;;;21.85;96.44;99312.03;5089295;28;20223;-65
2022/09/10 05:14:29;;;;;;;0.40;0.40;;;;;;;21.98;95.62;99307.56;5093036;28;20255;-65
2022/09/10 05:16:56;;;;;;;0.40;0.40;;;;;;;22.10;94.12;99295.31;5092160;28;20302;-65
2022/09/10 05:19:23;;;;;;;0.30;0.30;;;;;;;22.11;94.61;99285.69;5092190;28;20710;-65
2022/09/10 05:21:49;;;;;;;0.30;0.30;;;;;;;22.05;95.16;99270.53;5092913;28;20230;-65
2022/09/10 05:24:18;;;;;;;0.37;0.37;;;;;;;22.26;94.54;99282.69;5093273;28;20202;-65
2022/09/10 05:26:45;;;;;;;0.40;0.40;;;;;;;22.41;93.56;99280.66;5092530;28;20774;-65
2022/09/10 05:29:12;;;;;;;0.30;0.30;;;;;;;22.63;92.86;99293.63;5093248;28;20225;-65
2022/09/10 05:31:39;;;;;;;0.30;0.30;;;;;;;22.84;92.76;99302.34;5093215;28;20556;-65
2022/09/10 05:34:07;;;;;;;0.40;0.40;;;;;;;23.09;91.58;99303.78;5092977;28;20199;-65
2022/09/10 05:36:34;;;;;;;0.33;0.33;;;;;;;23.32;90.14;99307.94;5092627;28;20215;-65
2022/09/10 05:39:03;;;;;;;0.20;0.20;;;;;;;23.56;88.47;99305.06;5092476;28;20196;-65
2022/09/10 05:41:31;;;;;;;0.30;0.30;;;;;;;23.89;87.60;99302.16;5091982;28;20195;-65
2022/09/10 05:43:58;;;;;;;0.30;0.30;;;;;;;24.10;84.90;99296.03;5091897;28;20195;-65
2022/09/10 05:46:25;;;;;;;0.20;0.20;;;;;;;24.23;83.83;99304.50;5093029;28;20540;-65
2022/09/10 05:48:53;;;;;;;0.30;0.30;;;;;;;24.31;83.01;99302.03;5092851;28;20203;-65
2022/09/10 05:51:20;;;;;;;0.30;0.30;;;;;;;24.36;82.11;99308.50;5093197;28;20576;-65
2022/09/10 05:53:47;;;;;;;0.20;0.20;;;;;;;24.42;82.71;99310.63;5090399;28;20692;-64
2022/09/10 05:56:14;;;;;;;0.30;0.30;;;;;;;24.51;81.50;99314.22;5088262;28;20698;-65
2022/09/10 05:58:43;;;;;;;0.20;0.20;;;;;;;24.47;81.89;99305.78;5091024;28;20200;-65
2022/09/10 06:01:10;;;;;;;0.20;0.20;;;;;;;24.62;81.99;99311.44;5090589;28;20610;-64
2022/09/10 06:03:39;;;;;;;0.20;0.20;;;;;;;24.68;82.55;99274.22;5091066;28;20203;-65
2022/09/10 06:06:06;;;;;;;0.40;0.40;;;;;;;24.95;81.66;99312.84;5090938;28;20556;-65
2022/09/10 06:08:33;;;;;;;0.20;0.20;;;;;;;24.83;81.73;99308.72;5089818;28;20195;-65
2022/09/10 06:11:03;;;;;;;0.20;0.20;;;;;;;24.59;81.97;99293.38;5089386;28;20202;-66
2022/09/10 06:13:29;;;;;;;0.20;0.20;;;;;;;24.60;82.95;99310.75;5090113;28;20235;-65
2022/09/10 06:15:59;;;;;;;0.30;0.30;;;;;;;24.66;83.98;99317.25;5089482;28;20231;-65
2022/09/10 06:18:25;;;;;;;0.20;0.20;;;;;;;24.57;83.85;99287.44;5090550;28;20207;-65
2022/09/10 06:21:01;;;;;;;0.20;0.20;;;;;;;24.54;83.49;99298.19;5088449;28;20200;-65
2022/09/10 06:23:29;;;;;;;0.30;0.30;;;;;;;24.47;83.78;99310.19;5089549;28;20285;-65
2022/09/10 06:26:00;;;;;;;0.10;0.10;;;;;;;24.45;84.02;99325.22;5090255;28;20436;-63
2022/09/10 06:28:28;;;;;;;0.20;0.20;;;;;;;24.49;83.99;99329.25;5092599;28;20563;-64
2022/09/10 06:30:55;;;;;;;0.30;0.30;;;;;;;24.48;84.87;99335.44;5092280;28;20556;-64
2022/09/10 06:33:24;;;;;;;0.20;0.20;;;;;;;24.46;85.18;99337.34;5091956;28;20630;-63
2022/09/10 06:35:53;;;;;;;0.20;0.20;;;;;;;24.42;83.47;99331.59;5092499;28;20711;-64
2022/09/10 06:38:19;;;;;;;0.20;0.20;;;;;;;24.46;82.30;99326.88;5092264;28;20199;-64
2022/09/10 06:40:53;;;;;;;0.30;0.30;;;;;;;24.52;82.01;99327.16;5091851;28;20740;-63
2022/09/10 06:43:22;;;;;;;0.13;0.13;;;;;;;24.69;81.14;99312.56;5092216;28;20203;-63
2022/09/10 06:45:51;;;;;;;0.20;0.20;;;;;;;24.92;81.63;99305.25;5091552;28;20257;-64
2022/09/10 06:48:20;;;;;;;0.40;0.40;;;;;;;25.13;78.19;99305.94;5092017;28;20663;-63
2022/09/10 06:50:52;;;;;;;0.20;0.20;;;;;;;25.35;77.28;99310.03;5091826;28;20659;-64
2022/09/10 06:53:20;;;;;;;0.20;0.20;;;;;;;25.53;76.01;99308.34;5091079;28;20188;-64
2022/09/10 06:55:49;;;;;;;0.20;0.20;;;;;;;25.65;74.67;99301.97;5090925;28;20207;-64
2022/09/10 06:58:16;;;;;;;0.30;0.30;;;;;;;25.76;74.22;99293.91;5091959;28;20272;-64
2022/09/10 07:00:44;;;;;;;0.10;0.10;;;;;;;25.90;74.17;99285.56;5091665;28;20598;-64
2022/09/10 07:03:11;;;;;;;0.20;0.20;;;;;;;26.08;71.81;99293.47;5092355;28;20209;-64
2022/09/10 07:05:37;;;;;;;0.30;0.30;;;;;;;26.05;70.95;99294.59;5091489;28;20189;-64
2022/09/10 07:08:05;;;;;;;0.30;0.30;;;;;;;25.79;71.55;99272.59;5091941;28;20669;-63
2022/09/10 07:10:33;;;;;;;0.20;0.20;;;;;;;25.97;72.77;99297.13;5091263;28;20207;-64
2022/09/10 07:13:00;;;;;;;0.20;0.20;;;;;;;26.06;72.13;99312.03;5090977;28;20600;-64
2022/09/10 07:15:27;;;;;;;0.30;0.30;;;;;;;26.21;72.60;99314.16;5091080;28;20227;-63
2022/09/10 07:17:54;;;;;;;0.20;0.20;;;;;;;26.39;71.87;99329.00;5090068;28;20620;-64
2022/09/10 07:20:24;;;;;;;0.20;0.20;;;;;;;26.71;68.34;99333.78;5091566;28;20195;-64
2022/09/10 07:22:54;;;;;;;0.20;0.20;;;;;;;26.92;67.50;99331.69;5091408;28;20231;-64
2022/09/10 07:25:22;;;;;;;0.20;0.20;;;;;;;27.18;67.01;99334.34;5091717;28;20191;-64
2022/09/10 07:27:50;;;;;;;0.20;0.20;;;;;;;27.49;65.09;99340.06;5091390;28;20210;-64
2022/09/10 07:30:18;;;;;;;0.20;0.20;;;;;;;27.80;64.65;99329.84;5091520;28;20219;-64
2022/09/10 07:32:47;;;;;;;0.20;0.20;;;;;;;28.01;63.06;99325.81;5090942;28;20203;-63
2022/09/10 07:35:14;;;;;;;0.20;0.20;;;;;;;28.21;62.95;99331.69;5091365;28;20286;-64
2022/09/10 07:37:41;;;;;;;0.20;0.20;;;;;;;28.34;62.12;99320.69;5091132;28;20195;-64
2022/09/10 07:40:09;;;;;;;0.20;0.20;;;;;;;28.27;63.09;99314.44;5091063;28;20199;-64
2022/09/10 07:42:37;;;;;;;0.20;0.20;;;;;;;28.11;62.66;99299.38;5091384;28;20206;-64
2022/09/10 07:45:06;;;;;;;0.20;0.20;;;;;;;28.23;63.29;99307.81;5091065;28;20195;-64
2022/09/10 07:47:33;;;;;;;1.27;1.17;;;;;;;28.56;61.15;99310.34;5091427;28;20732;-65
2022/09/10 07:50:00;;;;;;;0.20;0.20;;;;;;;28.78;60.37;99308.94;5090989;28;20241;-64
2022/09/10 07:52:27;;;;;;;0.10;0.10;;;;;;;28.84;61.77;99305.63;5091322;28;20574;-64
2022/09/10 07:54:53;;;;;;;0.20;0.20;;;;;;;28.95;59.39;99299.22;5091090;28;20199;-64
2022/09/10 07:57:20;;;;;;;0.20;0.20;;;;;;;29.10;59.28;99305.47;5090770;28;20214;-64
2022/09/10 07:59:48;;;;;;;0.20;0.20;;;;;;;28.56;60.74;99299.00;5090214;28;20210;-64
2022/09/10 08:02:15;;;;;;;2.27;1.10;;;;;;;28.34;63.58;99302.22;5089443;28;20210;-64
2022/09/10 08:04:42;;;;;;;0.20;0.20;;;;;;;28.38;63.89;99303.56;5091449;28;20548;-64
2022/09/10 08:07:09;;;;;;;0.20;0.20;;;;;;;28.53;63.47;99291.41;5090972;28;20597;-64
2022/09/10 08:09:36;;;;;;;0.20;0.20;;;;;;;28.44;64.50;99305.53;5090582;28;20202;-65
2022/09/10 08:12:06;;;;;;;0.20;0.20;;;;;;;28.34;62.74;99310.13;5089591;28;20223;-65
2022/09/10 08:14:33;;;;;;;0.20;0.20;;;;;;;28.23;64.19;99305.19;5090969;28;20230;-64
2022/09/10 08:17:01;;;;;;;0.10;0.10;;;;;;;28.26;65.62;99315.41;5087143;28;20599;-64
2022/09/10 08:19:28;;;;;;;0.20;0.20;;;;;;;28.24;65.53;99309.47;5090763;28;20697;-64
2022/09/10 08:21:55;;;;;;;0.20;0.20;;;;;;;28.32;64.24;99298.94;5089330;28;20203;-63
2022/09/10 08:24:22;;;;;;;0.10;0.10;;;;;;;28.36;65.61;99302.91;5090298;28;20195;-64
2022/09/10 08:26:49;;;;;;;0.10;0.10;;;;;;;28.33;64.96;99309.34;5089286;28;20195;-64
2022/09/10 08:29:16;;;;;;;0.10;0.10;;;;;;;28.31;65.10;99315.72;5090335;28;20286;-64
2022/09/10 08:31:43;;;;;;;0.20;0.20;;;;;;;28.25;64.51;99306.66;5092028;28;20677;-64
2022/09/10 08:34:12;;;;;;;0.20;0.20;;;;;;;28.32;63.97;99317.38;5094715;28;20290;-64
2022/09/10 08:36:39;;;;;;;0.20;0.20;;;;;;;28.31;64.60;99310.47;5094578;28;20568;-64
2022/09/10 08:39:06;;;;;;;0.10;0.10;;;;;;;28.29;66.07;99323.00;5094853;28;20256;-64
2022/09/10 08:41:46;;;;;;;0.20;0.20;;;;;;;28.36;65.29;99324.00;5093635;28;20195;-64
2022/09/10 08:44:30;;;;;;;0.20;0.20;;;;;;;28.40;64.79;99312.16;5094318;28;20297;-64
2022/09/10 08:47:03;;;;;;;0.20;0.20;;;;;;;28.41;63.30;99305.88;5089118;28;20226;-64
2022/09/10 08:49:37;;;;;;;0.20;0.20;;;;;;;28.19;65.02;99290.66;5093800;28;20199;-64
2022/09/10 08:52:12;;;;;;;0.20;0.20;;;;;;;27.95;63.81;99283.50;5094681;28;20604;-64
2022/09/10 08:54:44;;;;;;;0.20;0.20;;;;;;;28.04;65.77;99288.63;5092924;28;20198;-64
2022/09/10 08:57:22;;;;;;;0.20;0.20;;;;;;;28.15;65.61;99290.16;5094052;28;20223;-64
2022/09/10 08:59:52;;;;;;;0.20;0.20;;;;;;;28.24;65.72;99277.84;5094256;28;20195;-64
2022/09/10 09:02:23;;;;;;;0.20;0.20;;;;;;;28.24;65.63;99272.56;5093930;28;20608;-64
2022/09/10 09:04:57;;;;;;;0.20;0.20;;;;;;;28.29;65.73;99254.44;5094277;28;20563;-64
2022/09/10 09:07:26;;;;;;;0.20;0.20;;;;;;;28.58;64.41;99265.34;5091604;28;20229;-65
2022/09/10 09:09:54;;;;;;;0.20;0.20;;;;;;;28.83;63.26;99264.41;5093428;28;20204;-64
2022/09/10 09:12:30;;;;;;;0.20;0.20;;;;;;;29.08;62.80;99259.94;5093629;28;20309;-64
2022/09/10 09:15:08;;;;;;;0.20;0.20;;;;;;;29.25;61.94;99263.38;5094063;28;20195;-64
2022/09/10 09:17:58;;;;;;;0.10;0.10;;;;;;;29.42;62.45;99257.06;5091649;28;20219;-64
2022/09/10 09:20:40;;;;;;;0.20;0.20;;;;;;;29.62;59.56;99258.34;5093883;28;20196;-64
2022/09/10 09:23:20;;;;;;;0.10;0.10;;;;;;;29.59;59.73;99256.03;5092038;28;20696;-65
2022/09/10 09:25:49;;;;;;;0.20;0.20;;;;;;;29.68;59.56;99244.44;5094043;28;20780;-64
2022/09/10 09:28:31;;;;;;;0.20;0.20;;;;;;;29.79;58.97;99220.25;5093627;28;20203;-64
2022/09/10 09:30:59;;;;;;;0.20;0.20;;;;;;;29.81;58.42;99234.16;5092510;28;20256;-65
2022/09/10 09:33:30;;;;;;;0.10;0.10;;;;;;;29.53;59.88;99219.75;5093376;28;20191;-65
2022/09/10 09:36:01;;;;;;;0.20;0.20;;;;;;;29.55;60.32;99207.19;5093506;28;20207;-64
2022/09/10 09:38:32;;;;;;;0.20;0.20;;;;;;;29.65;59.16;99213.06;5093639;28;20187;-65
2022/09/10 09:41:05;;;;;;;0.17;0.17;;;;;;;29.99;59.08;99210.94;5093568;28;20679;-65
2022/09/10 09:43:41;;;;;;;0.20;0.20;;;;;;;30.23;57.47;99206.50;5093434;28;20203;-64
2022/09/10 09:46:15;;;;;;;0.20;0.20;;;;;;;30.22;57.21;99200.38;5092501;28;20260;-65
2022/09/10 09:48:43;;;;;;;0.10;0.10;;;;;;;30.19;56.50;99185.69;5092200;28;20248;-65
2022/09/10 09:51:19;;;;;;;0.20;0.20;;;;;;;30.14;56.55;99182.78;5092959;28;20215;-66
2022/09/10 09:53:46;;;;;;;0.20;0.20;;;;;;;30.25;57.08;99178.03;5093132;28;20202;-64
2022/09/10 09:56:21;;;;;;;0.20;0.20;;;;;;;30.28;56.42;99185.63;5092704;28;20252;-64
2022/09/10 09:58:49;;;;;;;0.20;0.20;;;;;;;30.00;56.35;99172.13;5093089;28;20222;-65
2022/09/10 10:01:20;;;;;;;0.20;0.20;;;;;;;30.07;59.61;99171.25;5092817;28;20202;-65
2022/09/10 10:03:51;;;;;;;0.20;0.20;;;;;;;30.30;57.84;99175.69;5092257;28;20655;-65
2022/09/10 10:06:23;;;;;;;0.20;0.20;;;;;;;30.55;55.59;99163.94;5092052;28;20553;-64
2022/09/10 10:08:59;;;;;;;0.10;0.10;;;;;;;30.84;56.83;99158.69;5092946;28;20270;-65
2022/09/10 10:11:54;;;;;;;0.20;0.20;;;;;;;30.97;54.25;99161.56;5092762;28;20199;-65
2022/09/10 10:14:40;;;;;;;0.20;0.20;;;;;;;30.97;54.84;99161.56;5068690;28;20207;-65
2022/09/10 10:17:32;;;;;;;0.20;0.20;;;;;;;31.06;54.29;99163.13;5091381;28;20317;-64
2022/09/10 10:20:03;;;;;;;0.20;0.20;;;;;;;31.10;53.13;99164.41;5088367;28;20199;-64
2022/09/10 10:22:32;;;;;;;0.20;0.20;;;;;;;31.12;52.98;99151.78;5088897;28;20234;-65
2022/09/10 10:25:00;;;;;;;0.20;0.20;;;;;;;31.28;52.16;99150.78;5092568;28;20705;-64
2022/09/10 10:27:31;;;;;;;0.10;0.10;;;;;;;31.29;53.23;99151.59;5092757;28;20200;-64
2022/09/10 10:30:01;;;;;;;0.13;0.13;;;;;;;31.14;53.19;99144.50;5092083;28;20261;-65
2022/09/10 10:32:46;;;;;;;0.10;0.10;;;;;;;31.30;52.10;99143.50;5092403;28;20243;-64
2022/09/10 10:35:31;;;;;;;0.17;0.17;;;;;;;31.41;53.86;99137.69;5090428;28;20202;-64
2022/09/10 10:38:21;;;;;;;0.20;0.20;;;;;;;31.47;52.11;99128.22;5092191;28;20219;-64
2022/09/10 10:41:02;;;;;;;0.20;0.20;;;;;;;31.60;53.68;99123.09;5091804;28;20199;-64
2022/09/10 10:43:41;;;;;;;0.17;0.17;;;;;;;31.66;52.58;99122.34;5092421;28;20312;-65
2022/09/10 10:46:17;;;;;;;0.20;0.20;;;;;;;31.70;53.09;99118.28;5089767;28;20242;-65
2022/09/10 10:48:58;;;;;;;0.20;0.20;;;;;;;31.76;53.04;99112.25;5091958;28;20202;-64
2022/09/10 10:51:35;;;;;;;0.20;0.20;;;;;;;31.84;52.44;99113.94;5091165;28;20309;-64
2022/09/10 10:54:18;;;;;;;0.20;0.20;;;;;;;31.31;51.33;99113.31;5091581;28;20206;-64
2022/09/10 10:56:55;;;;;;;0.10;0.10;;;;;;;31.17;51.27;99109.72;5091912;28;20215;-65
2022/09/10 10:59:34;;;;;;;0.32;0.32;;;;;;;31.38;51.02;99105.44;5091818;28;20203;-65
2022/09/10 11:02:13;;;;;;;0.20;0.20;;;;;;;31.49;50.99;99097.03;5091176;28;20222;-66
2022/09/10 11:04:45;;;;;;;0.20;0.20;;;;;;;31.16;51.63;99100.13;5090843;28;20230;-66
2022/09/10 11:07:18;;;;;;;0.20;0.20;;;;;;;30.99;51.43;99082.78;5091523;28;20191;-66
2022/09/10 11:09:53;;;;;;;0.15;0.15;;;;;;;31.14;52.30;99102.13;5091060;28;20204;-66
2022/09/10 11:12:28;;;;;;;0.10;0.10;;;;;;;31.09;51.65;99099.19;5091165;28;20317;-64
2022/09/10 11:15:00;;;;;;;0.20;0.20;;;;;;;31.15;51.52;99087.88;5092113;28;20202;-64
2022/09/10 11:17:33;;;;;;;0.10;0.10;;;;;;;31.47;52.35;99091.09;5091219;28;20273;-65
2022/09/10 11:20:09;;;;;;;0.17;0.17;;;;;;;31.62;52.35;99081.31;5089647;28;20459;-68
2022/09/10 11:22:42;;;;;;;0.20;0.20;;;;;;;31.95;49.88;99085.13;5087511;28;20532;-68
2022/09/10 11:25:19;;;;;;;0.10;0.10;;;;;;;32.30;50.26;99087.88;5088152;28;20657;-69
2022/09/10 11:27:51;;;;;;;0.20;0.20;;;;;;;32.37;50.42;99070.16;5087617;28;20205;-68
2022/09/10 11:30:19;;;;;;;0.10;0.10;;;;;;;32.57;49.19;99073.81;5088004;28;20191;-68
2022/09/10 11:32:55;;;;;;;0.10;0.10;;;;;;;32.58;48.50;99043.59;5089291;28;20231;-68
2022/09/10 11:35:25;;;;;;;0.17;0.17;;;;;;;32.78;47.94;99055.13;5090546;28;20199;-69
2022/09/10 11:38:01;;;;;;;0.20;0.20;;;;;;;32.85;47.67;99050.69;5089065;28;20265;-69
2022/09/10 11:40:35;;;;;;;0.20;0.20;;;;;;;33.02;47.41;99049.31;5089970;28;20186;-68
2022/09/10 11:43:09;;;;;;;0.10;0.10;;;;;;;33.10;47.68;99051.84;5088860;28;20685;-69
2022/09/10 11:45:44;;;;;;;0.10;0.10;;;;;;;33.14;46.81;99050.44;5090451;28;20472;-69
2022/09/10 11:48:18;;;;;;;0.10;0.10;;;;;;;33.00;46.39;99046.06;5087460;28;20187;-69